sensor_id;sensor_type;location;lat;lon;timestamp;temperature;humidity
14783;DHT22;7483;50.498;12.138;2022-12-19T00:00:43;-2.90;99.90
14783;DHT22;7483;50.498;12.138;2022-12-19T00:03:12;-3.00;99.90
14783;DHT22;7483;50.498;12.138;2022-12-19T00:05:41;-2.90;99.90
14783;DHT22;7483;50.498;12.138;2022-12-19T00:08:14;-3.00;99.90
14783;DHT22;7483;50.498;12.138;2022-12-19T00:10:53;-3.00;99.90
14783;DHT22;7483;50.498;12.138;2022-12-19T00:13:23;-3.00;99.90
14783;DHT22;7483;50.498;12.138;2022-12-19T00:15:52;-3.00;99.90
14783;DHT22;7483;50.498;12.138;2022-12-19T00:18:20;-3.00;99.90
14783;DHT22;7483;50.498;12.138;2022-12-19T00:20:56;-3.00;99.90
14783;DHT22;7483;50.498;12.138;2022-12-19T00:23:28;-3.10;99.90
14783;DHT22;7483;50.498;12.138;2022-12-19T00:26:07;-3.10;99.90
14783;DHT22;7483;50.498;12.138;2022-12-19T00:28:39;-3.00;99.90
14783;DHT22;7483;50.498;12.138;2022-12-19T00:31:08;-3.10;99.90
14783;DHT22;7483;50.498;12.138;2022-12-19T00:33:37;-3.00;99.90
14783;DHT22;7483;50.498;12.138;2022-12-19T00:36:12;-3.00;99.90
14783;DHT22;7483;50.498;12.138;2022-12-19T00:38:49;-3.00;99.90
14783;DHT22;7483;50.498;12.138;2022-12-19T00:41:21;-3.10;99.90
14783;DHT22;7483;50.498;12.138;2022-12-19T00:43:52;-3.10;99.90
14783;DHT22;7483;50.498;12.138;2022-12-19T00:46:22;-3.00;99.90
14783;DHT22;7483;50.498;12.138;2022-12-19T00:48:51;-3.00;99.90
14783;DHT22;7483;50.498;12.138;2022-12-19T00:51:23;-3.00;99.90
14783;DHT22;7483;50.498;12.138;2022-12-19T00:53:54;-3.00;99.90
14783;DHT22;7483;50.498;12.138;2022-12-19T00:56:26;-3.00;99.90
14783;DHT22;7483;50.498;12.138;2022-12-19T00:58:55;-3.10;99.90
14783;DHT22;7483;50.498;12.138;2022-12-19T01:01:26;-3.10;99.90
14783;DHT22;7483;50.498;12.138;2022-12-19T01:03:56;-3.00;99.90
14783;DHT22;7483;50.498;12.138;2022-12-19T01:06:45;-3.10;99.90
14783;DHT22;7483;50.498;12.138;2022-12-19T01:09:13;-3.10;99.90
14783;DHT22;7483;50.498;12.138;2022-12-19T01:11:43;-3.10;99.90
14783;DHT22;7483;50.498;12.138;2022-12-19T01:14:29;-3.10;99.90
14783;DHT22;7483;50.498;12.138;2022-12-19T01:16:57;-3.10;99.90
14783;DHT22;7483;50.498;12.138;2022-12-19T01:19:25;-3.10;99.90
14783;DHT22;7483;50.498;12.138;2022-12-19T01:21:54;-3.10;99.90
14783;DHT22;7483;50.498;12.138;2022-12-19T01:24:22;-3.10;99.90
14783;DHT22;7483;50.498;12.138;2022-12-19T01:26:52;-3.10;99.90
14783;DHT22;7483;50.498;12.138;2022-12-19T01:29:20;-3.20;99.90
14783;DHT22;7483;50.498;12.138;2022-12-19T01:31:48;-3.20;99.90
14783;DHT22;7483;50.498;12.138;2022-12-19T01:34:27;-3.20;99.90
14783;DHT22;7483;50.498;12.138;2022-12-19T01:36:56;-3.20;99.90
14783;DHT22;7483;50.498;12.138;2022-12-19T01:39:24;-3.20;99.90
14783;DHT22;7483;50.498;12.138;2022-12-19T01:41:57;-3.30;99.90
14783;DHT22;7483;50.498;12.138;2022-12-19T01:44:27;-3.30;99.90
14783;DHT22;7483;50.498;12.138;2022-12-19T01:46:56;-3.30;99.90
14783;DHT22;7483;50.498;12.138;2022-12-19T01:49:27;-3.30;99.90
14783;DHT22;7483;50.498;12.138;2022-12-19T01:52:01;-3.30;99.90
14783;DHT22;7483;50.498;12.138;2022-12-19T01:54:35;-3.30;99.90
14783;DHT22;7483;50.498;12.138;2022-12-19T01:57:10;-3.30;99.90
14783;DHT22;7483;50.498;12.138;2022-12-19T01:59:42;-3.40;99.90
14783;DHT22;7483;50.498;12.138;2022-12-19T02:02:16;-3.40;99.90
14783;DHT22;7483;50.498;12.138;2022-12-19T02:04:48;-3.30;99.90
14783;DHT22;7483;50.498;12.138;2022-12-19T02:07:17;-3.40;99.90
14783;DHT22;7483;50.498;12.138;2022-12-19T02:09:50;-3.40;99.90
14783;DHT22;7483;50.498;12.138;2022-12-19T02:12:35;-3.40;99.90
14783;DHT22;7483;50.498;12.138;2022-12-19T02:15:08;-3.40;99.90
14783;DHT22;7483;50.498;12.138;2022-12-19T02:17:46;-3.40;99.90
14783;DHT22;7483;50.498;12.138;2022-12-19T02:20:54;-3.40;99.90
14783;DHT22;7483;50.498;12.138;2022-12-19T02:30:36;-3.50;99.90
14783;DHT22;7483;50.498;12.138;2022-12-19T02:33:17;-3.50;99.90
14783;DHT22;7483;50.498;12.138;2022-12-19T02:35:53;-3.50;99.90
14783;DHT22;7483;50.498;12.138;2022-12-19T02:38:28;-3.50;99.90
14783;DHT22;7483;50.498;12.138;2022-12-19T02:41:03;-3.50;99.90
14783;DHT22;7483;50.498;12.138;2022-12-19T02:43:38;-3.60;99.90
14783;DHT22;7483;50.498;12.138;2022-12-19T02:46:11;-3.50;99.90
14783;DHT22;7483;50.498;12.138;2022-12-19T02:48:43;-3.60;99.90
14783;DHT22;7483;50.498;12.138;2022-12-19T02:51:12;-3.60;99.90
14783;DHT22;7483;50.498;12.138;2022-12-19T02:53:41;-3.60;99.90
14783;DHT22;7483;50.498;12.138;2022-12-19T02:56:30;-3.60;99.90
14783;DHT22;7483;50.498;12.138;2022-12-19T02:59:17;-3.60;99.90
14783;DHT22;7483;50.498;12.138;2022-12-19T03:02:05;-3.60;99.90
14783;DHT22;7483;50.498;12.138;2022-12-19T03:04:50;-3.60;99.90
14783;DHT22;7483;50.498;12.138;2022-12-19T03:07:32;-3.60;99.90
14783;DHT22;7483;50.498;12.138;2022-12-19T03:10:11;-3.60;99.90
14783;DHT22;7483;50.498;12.138;2022-12-19T03:12:52;-3.70;99.90
14783;DHT22;7483;50.498;12.138;2022-12-19T03:15:25;-3.60;99.90
14783;DHT22;7483;50.498;12.138;2022-12-19T03:17:57;-3.60;99.90
14783;DHT22;7483;50.498;12.138;2022-12-19T03:20:35;-3.70;99.90
14783;DHT22;7483;50.498;12.138;2022-12-19T03:23:09;-3.70;99.90
14783;DHT22;7483;50.498;12.138;2022-12-19T03:25:40;-3.70;99.90
14783;DHT22;7483;50.498;12.138;2022-12-19T03:28:14;-3.70;99.90
14783;DHT22;7483;50.498;12.138;2022-12-19T03:30:48;-3.70;99.90
14783;DHT22;7483;50.498;12.138;2022-12-19T03:33:18;-3.70;99.90
14783;DHT22;7483;50.498;12.138;2022-12-19T03:35:50;-3.70;99.90
14783;DHT22;7483;50.498;12.138;2022-12-19T03:38:20;-3.70;99.90
14783;DHT22;7483;50.498;12.138;2022-12-19T03:40:50;-3.70;99.90
14783;DHT22;7483;50.498;12.138;2022-12-19T03:43:20;-3.70;99.90
14783;DHT22;7483;50.498;12.138;2022-12-19T03:45:54;-3.70;99.90
14783;DHT22;7483;50.498;12.138;2022-12-19T03:48:30;-3.70;99.90
14783;DHT22;7483;50.498;12.138;2022-12-19T03:51:09;-3.70;99.90
14783;DHT22;7483;50.498;12.138;2022-12-19T03:53:58;-3.70;99.90
14783;DHT22;7483;50.498;12.138;2022-12-19T03:56:35;-3.70;99.90
14783;DHT22;7483;50.498;12.138;2022-12-19T03:59:12;-3.70;99.90
14783;DHT22;7483;50.498;12.138;2022-12-19T04:01:45;-3.60;99.90
14783;DHT22;7483;50.498;12.138;2022-12-19T04:04:17;-3.60;99.90
14783;DHT22;7483;50.498;12.138;2022-12-19T04:06:47;-3.60;99.90
14783;DHT22;7483;50.498;12.138;2022-12-19T04:09:17;-3.60;99.90
14783;DHT22;7483;50.498;12.138;2022-12-19T04:11:51;-3.60;99.90
14783;DHT22;7483;50.498;12.138;2022-12-19T04:14:25;-3.60;99.90
14783;DHT22;7483;50.498;12.138;2022-12-19T04:17:02;-3.60;99.90
14783;DHT22;7483;50.498;12.138;2022-12-19T04:19:41;-3.60;99.90
14783;DHT22;7483;50.498;12.138;2022-12-19T04:22:28;-3.60;99.90
14783;DHT22;7483;50.498;12.138;2022-12-19T04:25:04;-3.60;99.90
14783;DHT22;7483;50.498;12.138;2022-12-19T04:27:38;-3.60;99.90
14783;DHT22;7483;50.498;12.138;2022-12-19T04:30:13;-3.60;99.90
14783;DHT22;7483;50.498;12.138;2022-12-19T04:32:44;-3.60;99.90
14783;DHT22;7483;50.498;12.138;2022-12-19T04:35:15;-3.60;99.90
14783;DHT22;7483;50.498;12.138;2022-12-19T04:37:43;-3.60;99.90
14783;DHT22;7483;50.498;12.138;2022-12-19T04:40:12;-3.50;99.90
14783;DHT22;7483;50.498;12.138;2022-12-19T04:42:41;-3.50;99.90
14783;DHT22;7483;50.498;12.138;2022-12-19T04:45:10;-3.50;99.90
14783;DHT22;7483;50.498;12.138;2022-12-19T04:47:38;-3.50;99.90
14783;DHT22;7483;50.498;12.138;2022-12-19T04:50:07;-3.50;99.90
14783;DHT22;7483;50.498;12.138;2022-12-19T04:52:38;-3.50;99.90
14783;DHT22;7483;50.498;12.138;2022-12-19T04:55:07;-3.50;99.90
14783;DHT22;7483;50.498;12.138;2022-12-19T04:57:36;-3.50;99.90
14783;DHT22;7483;50.498;12.138;2022-12-19T05:00:05;-3.50;99.90
14783;DHT22;7483;50.498;12.138;2022-12-19T05:02:34;-3.50;99.90
14783;DHT22;7483;50.498;12.138;2022-12-19T05:05:05;-3.50;99.90
14783;DHT22;7483;50.498;12.138;2022-12-19T05:07:33;-3.60;99.90
14783;DHT22;7483;50.498;12.138;2022-12-19T05:10:04;-3.60;99.90
14783;DHT22;7483;50.498;12.138;2022-12-19T05:12:33;-3.60;99.90
14783;DHT22;7483;50.498;12.138;2022-12-19T05:15:01;-3.60;99.90
14783;DHT22;7483;50.498;12.138;2022-12-19T05:17:29;-3.50;99.90
14783;DHT22;7483;50.498;12.138;2022-12-19T05:19:57;-3.50;99.90
14783;DHT22;7483;50.498;12.138;2022-12-19T05:22:26;-3.50;99.90
14783;DHT22;7483;50.498;12.138;2022-12-19T05:24:54;-3.60;99.90
14783;DHT22;7483;50.498;12.138;2022-12-19T05:27:23;-3.50;99.90
14783;DHT22;7483;50.498;12.138;2022-12-19T05:29:51;-3.60;99.90
14783;DHT22;7483;50.498;12.138;2022-12-19T05:32:20;-3.60;99.90
14783;DHT22;7483;50.498;12.138;2022-12-19T05:34:48;-3.60;99.90
14783;DHT22;7483;50.498;12.138;2022-12-19T05:37:17;-3.60;99.90
14783;DHT22;7483;50.498;12.138;2022-12-19T05:39:45;-3.60;99.90
14783;DHT22;7483;50.498;12.138;2022-12-19T05:42:13;-3.60;99.90
14783;DHT22;7483;50.498;12.138;2022-12-19T05:44:42;-3.60;99.90
14783;DHT22;7483;50.498;12.138;2022-12-19T05:47:10;-3.60;99.90
14783;DHT22;7483;50.498;12.138;2022-12-19T05:49:40;-3.50;99.90
14783;DHT22;7483;50.498;12.138;2022-12-19T05:52:08;-3.50;99.90
14783;DHT22;7483;50.498;12.138;2022-12-19T05:54:36;-3.60;99.90
14783;DHT22;7483;50.498;12.138;2022-12-19T05:57:04;-3.60;99.90
14783;DHT22;7483;50.498;12.138;2022-12-19T05:59:32;-3.60;99.90
14783;DHT22;7483;50.498;12.138;2022-12-19T06:02:02;-3.60;99.90
14783;DHT22;7483;50.498;12.138;2022-12-19T06:04:31;-3.60;99.90
14783;DHT22;7483;50.498;12.138;2022-12-19T06:06:59;-3.50;99.90
14783;DHT22;7483;50.498;12.138;2022-12-19T06:09:30;-3.50;99.90
14783;DHT22;7483;50.498;12.138;2022-12-19T06:11:58;-3.50;99.90
14783;DHT22;7483;50.498;12.138;2022-12-19T06:14:26;-3.50;99.90
14783;DHT22;7483;50.498;12.138;2022-12-19T06:16:54;-3.50;99.90
14783;DHT22;7483;50.498;12.138;2022-12-19T06:19:24;-3.40;99.90
14783;DHT22;7483;50.498;12.138;2022-12-19T06:21:52;-3.40;99.90
14783;DHT22;7483;50.498;12.138;2022-12-19T06:24:22;-3.40;99.90
14783;DHT22;7483;50.498;12.138;2022-12-19T06:26:51;-3.40;99.90
14783;DHT22;7483;50.498;12.138;2022-12-19T06:29:19;-3.40;99.90
14783;DHT22;7483;50.498;12.138;2022-12-19T06:31:48;-3.30;99.90
14783;DHT22;7483;50.498;12.138;2022-12-19T06:34:19;-3.30;99.90
14783;DHT22;7483;50.498;12.138;2022-12-19T06:37:08;-3.30;99.90
14783;DHT22;7483;50.498;12.138;2022-12-19T06:39:37;-3.30;99.90
14783;DHT22;7483;50.498;12.138;2022-12-19T06:42:07;-3.30;99.90
14783;DHT22;7483;50.498;12.138;2022-12-19T06:44:51;-3.30;99.90
14783;DHT22;7483;50.498;12.138;2022-12-19T06:47:22;-3.30;99.90
14783;DHT22;7483;50.498;12.138;2022-12-19T06:49:51;-3.30;99.90
14783;DHT22;7483;50.498;12.138;2022-12-19T06:52:21;-3.30;99.90
14783;DHT22;7483;50.498;12.138;2022-12-19T06:54:49;-3.30;99.90
14783;DHT22;7483;50.498;12.138;2022-12-19T06:57:17;-3.20;99.90
14783;DHT22;7483;50.498;12.138;2022-12-19T06:59:45;-3.20;99.90
14783;DHT22;7483;50.498;12.138;2022-12-19T07:02:22;-3.20;99.90
14783;DHT22;7483;50.498;12.138;2022-12-19T07:04:56;-3.20;99.90
14783;DHT22;7483;50.498;12.138;2022-12-19T07:07:30;-3.20;99.90
14783;DHT22;7483;50.498;12.138;2022-12-19T07:09:59;-3.10;99.90
14783;DHT22;7483;50.498;12.138;2022-12-19T07:12:27;-3.10;99.90
14783;DHT22;7483;50.498;12.138;2022-12-19T07:14:55;-3.10;99.90
14783;DHT22;7483;50.498;12.138;2022-12-19T07:17:25;-3.10;99.90
14783;DHT22;7483;50.498;12.138;2022-12-19T07:19:56;-3.00;99.90
14783;DHT22;7483;50.498;12.138;2022-12-19T07:22:28;-3.10;99.90
14783;DHT22;7483;50.498;12.138;2022-12-19T07:25:01;-3.00;99.90
14783;DHT22;7483;50.498;12.138;2022-12-19T07:27:31;-3.00;99.90
14783;DHT22;7483;50.498;12.138;2022-12-19T07:30:03;-3.00;99.90
14783;DHT22;7483;50.498;12.138;2022-12-19T07:32:34;-2.90;99.90
14783;DHT22;7483;50.498;12.138;2022-12-19T07:35:02;-2.90;99.90
14783;DHT22;7483;50.498;12.138;2022-12-19T07:37:32;-2.90;99.90
14783;DHT22;7483;50.498;12.138;2022-12-19T07:40:01;-2.80;99.90
14783;DHT22;7483;50.498;12.138;2022-12-19T07:42:29;-2.90;99.90
14783;DHT22;7483;50.498;12.138;2022-12-19T07:44:58;-2.80;99.90
14783;DHT22;7483;50.498;12.138;2022-12-19T07:47:27;-2.80;99.90
14783;DHT22;7483;50.498;12.138;2022-12-19T07:49:55;-2.80;99.90
14783;DHT22;7483;50.498;12.138;2022-12-19T07:52:23;-2.70;99.90
14783;DHT22;7483;50.498;12.138;2022-12-19T07:54:53;-2.70;99.90
14783;DHT22;7483;50.498;12.138;2022-12-19T07:57:21;-2.70;99.90
14783;DHT22;7483;50.498;12.138;2022-12-19T07:59:49;-2.60;99.90
14783;DHT22;7483;50.498;12.138;2022-12-19T08:02:17;-2.50;99.90
14783;DHT22;7483;50.498;12.138;2022-12-19T08:04:46;-2.50;99.90
14783;DHT22;7483;50.498;12.138;2022-12-19T08:07:14;-2.50;99.90
14783;DHT22;7483;50.498;12.138;2022-12-19T08:09:42;-2.40;99.90
14783;DHT22;7483;50.498;12.138;2022-12-19T08:12:11;-2.40;99.90
14783;DHT22;7483;50.498;12.138;2022-12-19T08:14:39;-2.40;99.90
14783;DHT22;7483;50.498;12.138;2022-12-19T08:17:07;-2.40;99.90
14783;DHT22;7483;50.498;12.138;2022-12-19T08:19:46;-2.30;99.90
14783;DHT22;7483;50.498;12.138;2022-12-19T08:22:14;-2.30;99.90
14783;DHT22;7483;50.498;12.138;2022-12-19T08:24:42;-2.30;99.90
14783;DHT22;7483;50.498;12.138;2022-12-19T08:27:12;-2.30;99.90
14783;DHT22;7483;50.498;12.138;2022-12-19T08:29:42;-2.30;99.90
14783;DHT22;7483;50.498;12.138;2022-12-19T08:32:10;-2.30;99.90
14783;DHT22;7483;50.498;12.138;2022-12-19T08:34:46;-2.30;99.90
14783;DHT22;7483;50.498;12.138;2022-12-19T08:37:15;-2.30;99.90
14783;DHT22;7483;50.498;12.138;2022-12-19T08:39:43;-2.30;99.90
14783;DHT22;7483;50.498;12.138;2022-12-19T08:42:14;-2.30;99.90
14783;DHT22;7483;50.498;12.138;2022-12-19T08:44:42;-2.30;99.90
14783;DHT22;7483;50.498;12.138;2022-12-19T08:47:10;-2.30;99.90
14783;DHT22;7483;50.498;12.138;2022-12-19T08:49:38;-2.30;99.90
14783;DHT22;7483;50.498;12.138;2022-12-19T08:52:06;-2.30;99.90
14783;DHT22;7483;50.498;12.138;2022-12-19T08:54:34;-2.30;99.90
14783;DHT22;7483;50.498;12.138;2022-12-19T08:57:02;-2.20;99.90
14783;DHT22;7483;50.498;12.138;2022-12-19T08:59:32;-2.20;99.90
14783;DHT22;7483;50.498;12.138;2022-12-19T09:02:01;-2.20;99.90
14783;DHT22;7483;50.498;12.138;2022-12-19T09:04:32;-2.20;99.90
14783;DHT22;7483;50.498;12.138;2022-12-19T09:07:20;-2.20;99.90
14783;DHT22;7483;50.498;12.138;2022-12-19T09:09:48;-2.20;99.90
14783;DHT22;7483;50.498;12.138;2022-12-19T09:12:16;-2.10;99.90
14783;DHT22;7483;50.498;12.138;2022-12-19T09:14:46;-2.10;99.90
14783;DHT22;7483;50.498;12.138;2022-12-19T09:17:14;-2.00;99.90
14783;DHT22;7483;50.498;12.138;2022-12-19T09:19:42;-2.00;99.90
14783;DHT22;7483;50.498;12.138;2022-12-19T09:22:14;-2.00;99.90
14783;DHT22;7483;50.498;12.138;2022-12-19T09:24:43;-2.00;99.90
14783;DHT22;7483;50.498;12.138;2022-12-19T09:27:11;-2.00;99.90
14783;DHT22;7483;50.498;12.138;2022-12-19T09:29:40;-2.00;99.90
14783;DHT22;7483;50.498;12.138;2022-12-19T09:32:10;-1.90;99.90
14783;DHT22;7483;50.498;12.138;2022-12-19T09:34:38;-1.90;99.90
14783;DHT22;7483;50.498;12.138;2022-12-19T09:37:08;-1.90;99.90
14783;DHT22;7483;50.498;12.138;2022-12-19T09:39:44;-1.90;99.90
14783;DHT22;7483;50.498;12.138;2022-12-19T09:42:36;-1.90;99.90
14783;DHT22;7483;50.498;12.138;2022-12-19T09:45:41;-1.90;99.90
14783;DHT22;7483;50.498;12.138;2022-12-19T09:48:20;-1.90;99.90
14783;DHT22;7483;50.498;12.138;2022-12-19T09:50:55;-1.80;99.90
14783;DHT22;7483;50.498;12.138;2022-12-19T09:53:43;-1.90;99.90
14783;DHT22;7483;50.498;12.138;2022-12-19T09:56:24;-1.80;99.90
14783;DHT22;7483;50.498;12.138;2022-12-19T09:59:00;-1.80;99.90
14783;DHT22;7483;50.498;12.138;2022-12-19T10:01:37;-1.70;99.90
14783;DHT22;7483;50.498;12.138;2022-12-19T10:04:15;-1.70;99.90
14783;DHT22;7483;50.498;12.138;2022-12-19T10:06:46;-1.70;99.90
14783;DHT22;7483;50.498;12.138;2022-12-19T10:09:34;-1.70;99.90
14783;DHT22;7483;50.498;12.138;2022-12-19T10:12:41;-1.60;99.90
14783;DHT22;7483;50.498;12.138;2022-12-19T10:15:28;-1.60;99.90
14783;DHT22;7483;50.498;12.138;2022-12-19T10:18:21;-1.60;99.90
14783;DHT22;7483;50.498;12.138;2022-12-19T10:21:05;-1.60;99.90
14783;DHT22;7483;50.498;12.138;2022-12-19T10:23:48;-1.50;99.90
14783;DHT22;7483;50.498;12.138;2022-12-19T10:26:31;-1.50;99.90
14783;DHT22;7483;50.498;12.138;2022-12-19T10:29:14;-1.40;99.90
14783;DHT22;7483;50.498;12.138;2022-12-19T10:32:10;-1.40;99.90
14783;DHT22;7483;50.498;12.138;2022-12-19T10:34:47;-1.40;99.90
14783;DHT22;7483;50.498;12.138;2022-12-19T10:37:20;-1.30;99.90
14783;DHT22;7483;50.498;12.138;2022-12-19T10:40:13;-1.30;99.90
14783;DHT22;7483;50.498;12.138;2022-12-19T10:42:57;-1.30;99.90
14783;DHT22;7483;50.498;12.138;2022-12-19T10:45:41;-1.30;99.90
14783;DHT22;7483;50.498;12.138;2022-12-19T10:48:15;-1.20;99.90
14783;DHT22;7483;50.498;12.138;2022-12-19T10:50:48;-1.20;99.90
14783;DHT22;7483;50.498;12.138;2022-12-19T10:53:25;-1.20;99.90
14783;DHT22;7483;50.498;12.138;2022-12-19T10:55:59;-1.10;99.90
14783;DHT22;7483;50.498;12.138;2022-12-19T10:58:32;-1.10;99.90
14783;DHT22;7483;50.498;12.138;2022-12-19T11:01:10;-1.00;99.90
14783;DHT22;7483;50.498;12.138;2022-12-19T11:03:41;-1.10;99.90
14783;DHT22;7483;50.498;12.138;2022-12-19T11:06:47;-1.00;99.90
14783;DHT22;7483;50.498;12.138;2022-12-19T11:09:27;-1.00;99.90
14783;DHT22;7483;50.498;12.138;2022-12-19T11:12:09;-0.90;99.90
14783;DHT22;7483;50.498;12.138;2022-12-19T11:15:12;-0.90;99.90
14783;DHT22;7483;50.498;12.138;2022-12-19T11:18:06;-0.90;99.90
14783;DHT22;7483;50.498;12.138;2022-12-19T11:20:58;-0.80;99.90
14783;DHT22;7483;50.498;12.138;2022-12-19T11:23:52;-0.70;99.90
14783;DHT22;7483;50.498;12.138;2022-12-19T11:26:45;-0.70;99.90
14783;DHT22;7483;50.498;12.138;2022-12-19T11:29:44;-0.70;99.90
14783;DHT22;7483;50.498;12.138;2022-12-19T11:32:37;-0.70;99.90
14783;DHT22;7483;50.498;12.138;2022-12-19T11:35:17;-0.70;99.90
14783;DHT22;7483;50.498;12.138;2022-12-19T11:37:53;-0.70;99.90
14783;DHT22;7483;50.498;12.138;2022-12-19T11:40:31;-0.70;99.90
14783;DHT22;7483;50.498;12.138;2022-12-19T11:43:10;-0.70;99.90
14783;DHT22;7483;50.498;12.138;2022-12-19T11:46:07;-0.60;99.90
14783;DHT22;7483;50.498;12.138;2022-12-19T11:48:50;-0.60;99.90
14783;DHT22;7483;50.498;12.138;2022-12-19T11:51:27;-0.60;99.90
14783;DHT22;7483;50.498;12.138;2022-12-19T11:54:03;-0.60;99.90
14783;DHT22;7483;50.498;12.138;2022-12-19T11:56:39;-0.50;99.90
14783;DHT22;7483;50.498;12.138;2022-12-19T11:59:15;-0.40;99.90
14783;DHT22;7483;50.498;12.138;2022-12-19T12:01:54;-0.40;99.90
14783;DHT22;7483;50.498;12.138;2022-12-19T12:05:04;-0.40;99.90
14783;DHT22;7483;50.498;12.138;2022-12-19T12:07:54;-0.40;99.90
14783;DHT22;7483;50.498;12.138;2022-12-19T12:10:56;-0.40;99.90
14783;DHT22;7483;50.498;12.138;2022-12-19T12:14:03;-0.40;99.90
14783;DHT22;7483;50.498;12.138;2022-12-19T12:17:10;-0.40;99.90
14783;DHT22;7483;50.498;12.138;2022-12-19T12:20:20;-0.40;99.90
14783;DHT22;7483;50.498;12.138;2022-12-19T12:23:24;-0.30;99.90
14783;DHT22;7483;50.498;12.138;2022-12-19T12:26:21;-0.30;99.90
14783;DHT22;7483;50.498;12.138;2022-12-19T12:29:18;-0.30;99.90
14783;DHT22;7483;50.498;12.138;2022-12-19T12:32:21;-0.20;99.90
14783;DHT22;7483;50.498;12.138;2022-12-19T12:35:28;-0.20;99.90
14783;DHT22;7483;50.498;12.138;2022-12-19T12:38:39;-0.10;99.90
14783;DHT22;7483;50.498;12.138;2022-12-19T12:41:37;-0.10;99.90
14783;DHT22;7483;50.498;12.138;2022-12-19T12:44:31;0.00;99.90
14783;DHT22;7483;50.498;12.138;2022-12-19T12:47:16;0.00;99.90
14783;DHT22;7483;50.498;12.138;2022-12-19T12:49:48;0.00;99.90
14783;DHT22;7483;50.498;12.138;2022-12-19T12:52:22;0.00;99.90
14783;DHT22;7483;50.498;12.138;2022-12-19T12:54:56;-0.10;99.90
14783;DHT22;7483;50.498;12.138;2022-12-19T12:57:34;0.00;99.90
14783;DHT22;7483;50.498;12.138;2022-12-19T13:00:19;0.00;99.90
14783;DHT22;7483;50.498;12.138;2022-12-19T13:02:54;-0.10;99.90
14783;DHT22;7483;50.498;12.138;2022-12-19T13:05:36;0.00;99.90
14783;DHT22;7483;50.498;12.138;2022-12-19T13:08:31;0.00;99.90
14783;DHT22;7483;50.498;12.138;2022-12-19T13:11:05;0.00;99.90
14783;DHT22;7483;50.498;12.138;2022-12-19T13:13:58;0.00;99.90
14783;DHT22;7483;50.498;12.138;2022-12-19T13:16:48;0.00;99.90
14783;DHT22;7483;50.498;12.138;2022-12-19T13:19:23;0.00;99.90
14783;DHT22;7483;50.498;12.138;2022-12-19T13:22:20;0.10;99.90
14783;DHT22;7483;50.498;12.138;2022-12-19T13:28:40;0.10;99.90
14783;DHT22;7483;50.498;12.138;2022-12-19T13:31:17;0.10;99.90
14783;DHT22;7483;50.498;12.138;2022-12-19T13:34:17;0.20;99.90
14783;DHT22;7483;50.498;12.138;2022-12-19T13:36:51;0.20;99.90
14783;DHT22;7483;50.498;12.138;2022-12-19T13:39:46;0.20;99.90
14783;DHT22;7483;50.498;12.138;2022-12-19T13:42:49;0.30;99.90
14783;DHT22;7483;50.498;12.138;2022-12-19T13:45:47;0.30;99.90
14783;DHT22;7483;50.498;12.138;2022-12-19T13:48:26;0.30;99.90
14783;DHT22;7483;50.498;12.138;2022-12-19T13:50:58;0.30;99.90
14783;DHT22;7483;50.498;12.138;2022-12-19T13:53:31;0.30;99.90
14783;DHT22;7483;50.498;12.138;2022-12-19T13:56:02;0.30;99.90
14783;DHT22;7483;50.498;12.138;2022-12-19T13:58:36;0.30;99.90
14783;DHT22;7483;50.498;12.138;2022-12-19T14:01:15;0.30;99.90
14783;DHT22;7483;50.498;12.138;2022-12-19T14:03:50;0.30;99.90
14783;DHT22;7483;50.498;12.138;2022-12-19T14:06:24;0.40;99.90
14783;DHT22;7483;50.498;12.138;2022-12-19T14:08:58;0.30;99.90
14783;DHT22;7483;50.498;12.138;2022-12-19T14:11:54;0.30;99.90
14783;DHT22;7483;50.498;12.138;2022-12-19T14:14:51;0.30;99.90
14783;DHT22;7483;50.498;12.138;2022-12-19T14:17:39;0.30;99.90
14783;DHT22;7483;50.498;12.138;2022-12-19T14:20:17;0.30;99.90
14783;DHT22;7483;50.498;12.138;2022-12-19T14:23:07;0.40;99.90
14783;DHT22;7483;50.498;12.138;2022-12-19T14:25:39;0.40;99.90
14783;DHT22;7483;50.498;12.138;2022-12-19T14:28:38;0.30;99.90
14783;DHT22;7483;50.498;12.138;2022-12-19T14:31:20;0.40;99.90
14783;DHT22;7483;50.498;12.138;2022-12-19T14:33:51;0.40;99.90
14783;DHT22;7483;50.498;12.138;2022-12-19T14:36:47;0.40;99.90
14783;DHT22;7483;50.498;12.138;2022-12-19T14:39:21;0.40;99.90
14783;DHT22;7483;50.498;12.138;2022-12-19T14:42:01;0.40;99.90
14783;DHT22;7483;50.498;12.138;2022-12-19T14:45:31;0.50;99.90
14783;DHT22;7483;50.498;12.138;2022-12-19T14:48:26;0.50;99.90
14783;DHT22;7483;50.498;12.138;2022-12-19T14:51:23;0.50;99.90
14783;DHT22;7483;50.498;12.138;2022-12-19T14:54:19;0.50;99.90
14783;DHT22;7483;50.498;12.138;2022-12-19T14:57:15;0.50;99.90
14783;DHT22;7483;50.498;12.138;2022-12-19T15:00:22;0.60;99.90
14783;DHT22;7483;50.498;12.138;2022-12-19T15:03:20;0.60;99.90
14783;DHT22;7483;50.498;12.138;2022-12-19T15:06:03;0.60;99.90
14783;DHT22;7483;50.498;12.138;2022-12-19T15:08:58;0.70;99.90
14783;DHT22;7483;50.498;12.138;2022-12-19T15:11:53;0.70;99.90
14783;DHT22;7483;50.498;12.138;2022-12-19T15:15:15;0.80;99.90
14783;DHT22;7483;50.498;12.138;2022-12-19T15:17:46;0.80;99.90
14783;DHT22;7483;50.498;12.138;2022-12-19T15:20:16;0.80;99.90
14783;DHT22;7483;50.498;12.138;2022-12-19T15:22:46;0.80;99.90
14783;DHT22;7483;50.498;12.138;2022-12-19T15:25:15;0.90;99.90
14783;DHT22;7483;50.498;12.138;2022-12-19T15:28:11;0.90;99.90
14783;DHT22;7483;50.498;12.138;2022-12-19T15:30:43;0.90;99.90
14783;DHT22;7483;50.498;12.138;2022-12-19T15:33:17;0.90;99.90
14783;DHT22;7483;50.498;12.138;2022-12-19T15:35:45;1.00;99.90
14783;DHT22;7483;50.498;12.138;2022-12-19T15:38:15;0.90;99.90
14783;DHT22;7483;50.498;12.138;2022-12-19T15:40:43;1.00;99.90
14783;DHT22;7483;50.498;12.138;2022-12-19T15:43:15;1.00;99.90
14783;DHT22;7483;50.498;12.138;2022-12-19T15:46:05;1.00;99.90
14783;DHT22;7483;50.498;12.138;2022-12-19T15:48:38;1.00;99.90
14783;DHT22;7483;50.498;12.138;2022-12-19T15:51:10;1.00;99.90
14783;DHT22;7483;50.498;12.138;2022-12-19T15:53:40;1.00;99.90
14783;DHT22;7483;50.498;12.138;2022-12-19T15:56:22;1.10;99.90
14783;DHT22;7483;50.498;12.138;2022-12-19T15:58:53;1.10;99.90
14783;DHT22;7483;50.498;12.138;2022-12-19T16:01:24;1.10;99.90
14783;DHT22;7483;50.498;12.138;2022-12-19T16:03:54;1.10;99.90
14783;DHT22;7483;50.498;12.138;2022-12-19T16:06:23;1.10;99.90
14783;DHT22;7483;50.498;12.138;2022-12-19T16:08:53;1.10;99.90
14783;DHT22;7483;50.498;12.138;2022-12-19T16:11:23;1.10;99.90
14783;DHT22;7483;50.498;12.138;2022-12-19T16:13:54;1.10;99.90
14783;DHT22;7483;50.498;12.138;2022-12-19T16:16:24;1.10;99.90
14783;DHT22;7483;50.498;12.138;2022-12-19T16:18:52;1.10;99.90
14783;DHT22;7483;50.498;12.138;2022-12-19T16:21:22;1.10;99.90
14783;DHT22;7483;50.498;12.138;2022-12-19T16:24:01;1.10;99.90
14783;DHT22;7483;50.498;12.138;2022-12-19T16:26:32;1.20;99.90
14783;DHT22;7483;50.498;12.138;2022-12-19T16:29:03;1.20;99.90
14783;DHT22;7483;50.498;12.138;2022-12-19T16:31:32;1.20;99.90
14783;DHT22;7483;50.498;12.138;2022-12-19T16:34:01;1.20;99.90
14783;DHT22;7483;50.498;12.138;2022-12-19T16:36:29;1.20;99.90
14783;DHT22;7483;50.498;12.138;2022-12-19T16:38:58;1.20;99.90
14783;DHT22;7483;50.498;12.138;2022-12-19T16:41:27;1.20;99.90
14783;DHT22;7483;50.498;12.138;2022-12-19T16:43:55;1.20;99.90